sensor_id;sensor_type;location;lat;lon;timestamp;P1;durP1;ratioP1;P2;durP2;ratioP2
23658;SDS011;12006;42.666;23.326;2024-03-07T00:02:43;19.60;;;13.10;;
23658;SDS011;12006;42.666;23.326;2024-03-07T00:06:07;22.60;;;14.73;;
23658;SDS011;12006;42.666;23.326;2024-03-07T00:09:32;20.27;;;14.30;;
23658;SDS011;12006;42.666;23.326;2024-03-07T00:12:56;21.83;;;14.60;;
23658;SDS011;12006;42.666;23.326;2024-03-07T00:16:20;22.27;;;15.03;;
23658;SDS011;12006;42.666;23.326;2024-03-07T00:19:44;20.73;;;14.70;;
23658;SDS011;12006;42.666;23.326;2024-03-07T00:23:08;23.17;;;15.30;;
23658;SDS011;12006;42.666;23.326;2024-03-07T00:26:33;22.30;;;15.10;;
23658;SDS011;12006;42.666;23.326;2024-03-07T00:29:58;24.40;;;15.53;;
23658;SDS011;12006;42.666;23.326;2024-03-07T00:33:22;25.07;;;15.70;;
23658;SDS011;12006;42.666;23.326;2024-03-07T00:36:48;21.87;;;14.73;;
23658;SDS011;12006;42.666;23.326;2024-03-07T00:40:12;19.43;;;13.73;;
23658;SDS011;12006;42.666;23.326;2024-03-07T00:43:36;23.87;;;14.07;;
23658;SDS011;12006;42.666;23.326;2024-03-07T00:47:01;20.30;;;12.77;;
23658;SDS011;12006;42.666;23.326;2024-03-07T00:50:26;18.97;;;13.63;;
23658;SDS011;12006;42.666;23.326;2024-03-07T00:53:50;19.43;;;12.90;;
23658;SDS011;12006;42.666;23.326;2024-03-07T00:57:14;18.43;;;12.67;;
23658;SDS011;12006;42.666;23.326;2024-03-07T01:00:38;17.80;;;12.00;;
23658;SDS011;12006;42.666;23.326;2024-03-07T01:04:03;18.60;;;13.13;;
23658;SDS011;12006;42.666;23.326;2024-03-07T01:07:32;16.90;;;12.73;;
23658;SDS011;12006;42.666;23.326;2024-03-07T01:10:57;19.33;;;13.37;;
23658;SDS011;12006;42.666;23.326;2024-03-07T01:14:22;20.73;;;13.10;;
23658;SDS011;12006;42.666;23.326;2024-03-07T01:17:46;19.50;;;13.43;;
23658;SDS011;12006;42.666;23.326;2024-03-07T01:21:10;21.00;;;13.50;;
23658;SDS011;12006;42.666;23.326;2024-03-07T01:24:34;17.73;;;12.47;;
23658;SDS011;12006;42.666;23.326;2024-03-07T01:28:02;19.73;;;12.50;;
23658;SDS011;12006;42.666;23.326;2024-03-07T01:31:26;18.53;;;12.47;;
23658;SDS011;12006;42.666;23.326;2024-03-07T01:34:49;18.83;;;12.90;;
23658;SDS011;12006;42.666;23.326;2024-03-07T01:38:14;17.87;;;12.23;;
23658;SDS011;12006;42.666;23.326;2024-03-07T01:41:39;19.17;;;12.20;;
23658;SDS011;12006;42.666;23.326;2024-03-07T01:45:03;17.37;;;12.13;;
23658;SDS011;12006;42.666;23.326;2024-03-07T01:48:27;17.57;;;12.60;;
23658;SDS011;12006;42.666;23.326;2024-03-07T01:51:51;17.57;;;11.97;;
23658;SDS011;12006;42.666;23.326;2024-03-07T01:55:16;17.67;;;11.80;;
23658;SDS011;12006;42.666;23.326;2024-03-07T01:58:41;18.27;;;11.20;;
23658;SDS011;12006;42.666;23.326;2024-03-07T02:02:05;14.67;;;10.40;;
23658;SDS011;12006;42.666;23.326;2024-03-07T02:05:32;15.10;;;10.77;;
23658;SDS011;12006;42.666;23.326;2024-03-07T02:08:56;14.43;;;10.27;;
23658;SDS011;12006;42.666;23.326;2024-03-07T02:12:27;15.93;;;11.07;;
23658;SDS011;12006;42.666;23.326;2024-03-07T02:15:52;14.30;;;10.20;;
23658;SDS011;12006;42.666;23.326;2024-03-07T02:19:16;14.60;;;10.23;;
23658;SDS011;12006;42.666;23.326;2024-03-07T02:22:41;15.17;;;10.70;;
23658;SDS011;12006;42.666;23.326;2024-03-07T02:26:06;15.93;;;10.50;;
23658;SDS011;12006;42.666;23.326;2024-03-07T02:29:30;12.97;;;8.80;;
23658;SDS011;12006;42.666;23.326;2024-03-07T02:32:57;14.43;;;8.63;;
23658;SDS011;12006;42.666;23.326;2024-03-07T02:36:21;11.17;;;7.20;;
23658;SDS011;12006;42.666;23.326;2024-03-07T02:39:45;6.37;;;4.63;;
23658;SDS011;12006;42.666;23.326;2024-03-07T02:43:09;7.27;;;3.63;;
23658;SDS011;12006;42.666;23.326;2024-03-07T02:46:32;4.13;;;2.70;;
23658;SDS011;12006;42.666;23.326;2024-03-07T02:49:56;1.80;;;1.60;;
23658;SDS011;12006;42.666;23.326;2024-03-07T02:53:20;1.90;;;1.40;;
23658;SDS011;12006;42.666;23.326;2024-03-07T02:56:44;1.50;;;1.40;;
23658;SDS011;12006;42.666;23.326;2024-03-07T03:00:08;3.20;;;1.50;;
23658;SDS011;12006;42.666;23.326;2024-03-07T03:03:32;1.57;;;1.20;;
23658;SDS011;12006;42.666;23.326;2024-03-07T03:06:56;1.80;;;1.30;;
23658;SDS011;12006;42.666;23.326;2024-03-07T03:13:45;1.27;;;1.10;;
23658;SDS011;12006;42.666;23.326;2024-03-07T03:17:09;1.77;;;1.40;;
23658;SDS011;12006;42.666;23.326;2024-03-07T03:20:34;1.53;;;1.30;;
23658;SDS011;12006;42.666;23.326;2024-03-07T03:23:58;1.40;;;1.30;;
23658;SDS011;12006;42.666;23.326;2024-03-07T03:27:22;3.20;;;1.50;;
23658;SDS011;12006;42.666;23.326;2024-03-07T03:30:47;2.07;;;1.50;;
23658;SDS011;12006;42.666;23.326;2024-03-07T03:34:11;2.00;;;1.70;;
23658;SDS011;12006;42.666;23.326;2024-03-07T03:37:38;1.43;;;1.30;;
23658;SDS011;12006;42.666;23.326;2024-03-07T03:41:02;2.33;;;2.13;;
23658;SDS011;12006;42.666;23.326;2024-03-07T03:44:26;2.03;;;1.77;;
23658;SDS011;12006;42.666;23.326;2024-03-07T03:47:50;2.30;;;1.70;;
23658;SDS011;12006;42.666;23.326;2024-03-07T03:51:15;2.10;;;1.47;;
23658;SDS011;12006;42.666;23.326;2024-03-07T03:54:39;1.40;;;1.30;;
23658;SDS011;12006;42.666;23.326;2024-03-07T03:58:03;2.17;;;1.60;;
23658;SDS011;12006;42.666;23.326;2024-03-07T04:01:27;2.13;;;1.37;;
23658;SDS011;12006;42.666;23.326;2024-03-07T04:04:51;2.63;;;1.60;;
23658;SDS011;12006;42.666;23.326;2024-03-07T04:08:15;2.13;;;1.33;;
23658;SDS011;12006;42.666;23.326;2024-03-07T04:11:40;1.40;;;1.10;;
23658;SDS011;12006;42.666;23.326;2024-03-07T04:15:08;1.37;;;1.27;;
23658;SDS011;12006;42.666;23.326;2024-03-07T04:18:33;1.57;;;1.30;;
23658;SDS011;12006;42.666;23.326;2024-03-07T04:21:58;1.57;;;1.47;;
23658;SDS011;12006;42.666;23.326;2024-03-07T04:25:22;2.50;;;1.80;;
23658;SDS011;12006;42.666;23.326;2024-03-07T04:28:46;2.20;;;1.37;;
23658;SDS011;12006;42.666;23.326;2024-03-07T04:32:12;1.20;;;1.00;;
23658;SDS011;12006;42.666;23.326;2024-03-07T04:35:36;1.30;;;1.00;;
23658;SDS011;12006;42.666;23.326;2024-03-07T04:39:00;1.20;;;1.00;;
23658;SDS011;12006;42.666;23.326;2024-03-07T04:42:24;0.83;;;0.60;;
23658;SDS011;12006;42.666;23.326;2024-03-07T04:45:48;1.00;;;0.90;;
23658;SDS011;12006;42.666;23.326;2024-03-07T04:49:14;0.73;;;0.57;;
23658;SDS011;12006;42.666;23.326;2024-03-07T04:52:38;1.13;;;1.03;;
23658;SDS011;12006;42.666;23.326;2024-03-07T04:56:07;0.73;;;0.70;;
23658;SDS011;12006;42.666;23.326;2024-03-07T04:59:30;1.13;;;0.80;;
23658;SDS011;12006;42.666;23.326;2024-03-07T05:02:55;1.10;;;0.60;;
23658;SDS011;12006;42.666;23.326;2024-03-07T05:06:19;0.77;;;0.70;;
23658;SDS011;12006;42.666;23.326;2024-03-07T05:09:44;1.20;;;0.90;;
23658;SDS011;12006;42.666;23.326;2024-03-07T05:13:08;1.40;;;1.27;;
23658;SDS011;12006;42.666;23.326;2024-03-07T05:16:32;1.20;;;0.80;;
23658;SDS011;12006;42.666;23.326;2024-03-07T05:19:59;1.57;;;1.17;;
23658;SDS011;12006;42.666;23.326;2024-03-07T05:23:43;1.00;;;1.00;;
23658;SDS011;12006;42.666;23.326;2024-03-07T05:27:08;1.30;;;1.00;;
23658;SDS011;12006;42.666;23.326;2024-03-07T05:30:31;1.23;;;1.13;;
23658;SDS011;12006;42.666;23.326;2024-03-07T05:33:59;1.40;;;1.20;;
23658;SDS011;12006;42.666;23.326;2024-03-07T05:37:23;1.37;;;1.10;;
23658;SDS011;12006;42.666;23.326;2024-03-07T05:40:47;2.97;;;1.87;;
23658;SDS011;12006;42.666;23.326;2024-03-07T05:44:11;1.87;;;1.63;;
23658;SDS011;12006;42.666;23.326;2024-03-07T05:47:35;2.53;;;1.70;;
23658;SDS011;12006;42.666;23.326;2024-03-07T05:50:59;2.47;;;2.13;;
23658;SDS011;12006;42.666;23.326;2024-03-07T05:54:23;1.83;;;1.70;;
23658;SDS011;12006;42.666;23.326;2024-03-07T05:57:48;2.90;;;1.60;;
23658;SDS011;12006;42.666;23.326;2024-03-07T06:01:12;1.90;;;1.80;;
23658;SDS011;12006;42.666;23.326;2024-03-07T06:04:40;2.30;;;1.57;;
23658;SDS011;12006;42.666;23.326;2024-03-07T06:08:08;2.20;;;1.80;;
23658;SDS011;12006;42.666;23.326;2024-03-07T06:11:36;1.80;;;1.40;;
23658;SDS011;12006;42.666;23.326;2024-03-07T06:15:00;3.20;;;1.83;;
23658;SDS011;12006;42.666;23.326;2024-03-07T06:18:29;3.27;;;2.70;;
23658;SDS011;12006;42.666;23.326;2024-03-07T06:21:53;2.70;;;1.97;;
23658;SDS011;12006;42.666;23.326;2024-03-07T06:25:20;2.47;;;1.93;;
23658;SDS011;12006;42.666;23.326;2024-03-07T06:29:01;2.77;;;2.20;;
23658;SDS011;12006;42.666;23.326;2024-03-07T06:32:26;2.33;;;1.83;;
23658;SDS011;12006;42.666;23.326;2024-03-07T06:35:50;2.83;;;2.47;;
23658;SDS011;12006;42.666;23.326;2024-03-07T06:39:14;3.80;;;2.70;;
23658;SDS011;12006;42.666;23.326;2024-03-07T06:42:39;3.80;;;2.90;;
23658;SDS011;12006;42.666;23.326;2024-03-07T06:46:04;6.20;;;3.37;;
23658;SDS011;12006;42.666;23.326;2024-03-07T06:49:30;3.00;;;2.70;;
23658;SDS011;12006;42.666;23.326;2024-03-07T06:52:54;3.10;;;2.70;;
23658;SDS011;12006;42.666;23.326;2024-03-07T06:56:19;3.57;;;2.90;;
23658;SDS011;12006;42.666;23.326;2024-03-07T06:59:43;3.80;;;3.37;;
23658;SDS011;12006;42.666;23.326;2024-03-07T07:03:09;3.30;;;3.00;;
23658;SDS011;12006;42.666;23.326;2024-03-07T07:06:33;4.63;;;3.60;;
23658;SDS011;12006;42.666;23.326;2024-03-07T07:10:00;4.67;;;4.17;;
23658;SDS011;12006;42.666;23.326;2024-03-07T07:13:24;5.20;;;4.10;;
23658;SDS011;12006;42.666;23.326;2024-03-07T07:16:48;4.93;;;3.70;;
23658;SDS011;12006;42.666;23.326;2024-03-07T07:20:16;5.33;;;3.60;;
23658;SDS011;12006;42.666;23.326;2024-03-07T07:23:41;3.97;;;3.43;;
23658;SDS011;12006;42.666;23.326;2024-03-07T07:27:04;3.40;;;2.83;;
23658;SDS011;12006;42.666;23.326;2024-03-07T07:30:29;3.27;;;2.27;;
23658;SDS011;12006;42.666;23.326;2024-03-07T07:33:53;2.37;;;2.17;;
23658;SDS011;12006;42.666;23.326;2024-03-07T07:37:17;3.00;;;2.67;;
23658;SDS011;12006;42.666;23.326;2024-03-07T07:40:41;3.80;;;3.10;;
23658;SDS011;12006;42.666;23.326;2024-03-07T07:44:05;2.67;;;2.20;;
23658;SDS011;12006;42.666;23.326;2024-03-07T07:47:36;2.30;;;1.90;;
23658;SDS011;12006;42.666;23.326;2024-03-07T07:50:59;2.10;;;1.60;;
23658;SDS011;12006;42.666;23.326;2024-03-07T07:54:23;1.83;;;1.60;;
23658;SDS011;12006;42.666;23.326;2024-03-07T07:57:51;2.50;;;2.30;;
23658;SDS011;12006;42.666;23.326;2024-03-07T08:01:16;3.97;;;2.80;;
23658;SDS011;12006;42.666;23.326;2024-03-07T08:04:40;4.67;;;2.67;;
23658;SDS011;12006;42.666;23.326;2024-03-07T08:08:05;5.40;;;3.17;;
23658;SDS011;12006;42.666;23.326;2024-03-07T08:11:34;3.90;;;2.57;;
23658;SDS011;12006;42.666;23.326;2024-03-07T08:15:01;4.53;;;3.13;;
23658;SDS011;12006;42.666;23.326;2024-03-07T08:18:25;5.37;;;3.20;;
23658;SDS011;12006;42.666;23.326;2024-03-07T08:21:49;5.30;;;4.53;;
23658;SDS011;12006;42.666;23.326;2024-03-07T08:25:17;4.07;;;2.90;;
23658;SDS011;12006;42.666;23.326;2024-03-07T08:28:41;7.40;;;2.53;;
23658;SDS011;12006;42.666;23.326;2024-03-07T08:32:05;2.30;;;2.10;;
23658;SDS011;12006;42.666;23.326;2024-03-07T08:35:30;3.20;;;2.40;;
23658;SDS011;12006;42.666;23.326;2024-03-07T08:38:54;5.27;;;2.47;;
23658;SDS011;12006;42.666;23.326;2024-03-07T08:42:18;3.87;;;2.27;;
23658;SDS011;12006;42.666;23.326;2024-03-07T08:45:42;4.37;;;2.53;;
23658;SDS011;12006;42.666;23.326;2024-03-07T08:49:06;4.33;;;3.63;;
23658;SDS011;12006;42.666;23.326;2024-03-07T08:52:34;2.97;;;2.73;;
23658;SDS011;12006;42.666;23.326;2024-03-07T08:55:58;2.77;;;2.47;;
23658;SDS011;12006;42.666;23.326;2024-03-07T08:59:22;2.13;;;1.93;;
23658;SDS011;12006;42.666;23.326;2024-03-07T09:02:49;3.90;;;2.77;;
23658;SDS011;12006;42.666;23.326;2024-03-07T09:06:13;3.47;;;2.87;;
23658;SDS011;12006;42.666;23.326;2024-03-07T09:09:39;2.37;;;2.17;;
23658;SDS011;12006;42.666;23.326;2024-03-07T09:13:06;2.27;;;2.07;;
23658;SDS011;12006;42.666;23.326;2024-03-07T09:16:34;2.53;;;2.33;;
23658;SDS011;12006;42.666;23.326;2024-03-07T09:19:58;2.63;;;2.13;;
23658;SDS011;12006;42.666;23.326;2024-03-07T09:23:22;3.00;;;2.17;;
23658;SDS011;12006;42.666;23.326;2024-03-07T09:26:52;2.53;;;2.00;;
23658;SDS011;12006;42.666;23.326;2024-03-07T09:30:16;3.07;;;2.60;;
23658;SDS011;12006;42.666;23.326;2024-03-07T09:33:40;3.30;;;2.30;;
23658;SDS011;12006;42.666;23.326;2024-03-07T09:37:04;3.60;;;2.50;;
23658;SDS011;12006;42.666;23.326;2024-03-07T09:40:27;2.60;;;2.30;;
23658;SDS011;12006;42.666;23.326;2024-03-07T09:43:52;4.00;;;2.87;;
23658;SDS011;12006;42.666;23.326;2024-03-07T09:47:16;3.27;;;2.73;;
23658;SDS011;12006;42.666;23.326;2024-03-07T09:50:40;3.40;;;2.63;;
23658;SDS011;12006;42.666;23.326;2024-03-07T09:54:08;3.27;;;2.70;;
23658;SDS011;12006;42.666;23.326;2024-03-07T09:57:33;4.27;;;3.30;;
23658;SDS011;12006;42.666;23.326;2024-03-07T10:00:59;4.33;;;3.60;;
23658;SDS011;12006;42.666;23.326;2024-03-07T10:04:47;9.47;;;6.03;;
23658;SDS011;12006;42.666;23.326;2024-03-07T10:08:08;4.87;;;3.90;;
23658;SDS011;12006;42.666;23.326;2024-03-07T10:11:33;7.40;;;4.93;;
23658;SDS011;12006;42.666;23.326;2024-03-07T10:14:56;4.13;;;3.73;;
23658;SDS011;12006;42.666;23.326;2024-03-07T10:18:25;6.03;;;4.10;;
23658;SDS011;12006;42.666;23.326;2024-03-07T10:21:49;5.93;;;5.27;;
23658;SDS011;12006;42.666;23.326;2024-03-07T10:25:16;4.27;;;2.93;;
23658;SDS011;12006;42.666;23.326;2024-03-07T10:28:42;3.80;;;3.37;;
23658;SDS011;12006;42.666;23.326;2024-03-07T10:32:12;8.30;;;6.80;;
23658;SDS011;12006;42.666;23.326;2024-03-07T10:35:37;4.33;;;3.60;;
23658;SDS011;12006;42.666;23.326;2024-03-07T10:39:01;5.63;;;4.30;;
23658;SDS011;12006;42.666;23.326;2024-03-07T10:42:26;7.13;;;5.10;;
23658;SDS011;12006;42.666;23.326;2024-03-07T10:45:54;4.23;;;3.63;;
23658;SDS011;12006;42.666;23.326;2024-03-07T10:49:20;5.00;;;3.93;;
23658;SDS011;12006;42.666;23.326;2024-03-07T10:52:54;5.47;;;4.50;;
23658;SDS011;12006;42.666;23.326;2024-03-07T11:00:24;6.07;;;3.90;;
23658;SDS011;12006;42.666;23.326;2024-03-07T11:03:50;7.60;;;4.13;;
23658;SDS011;12006;42.666;23.326;2024-03-07T11:07:17;5.33;;;4.60;;
23658;SDS011;12006;42.666;23.326;2024-03-07T11:10:41;3.80;;;3.00;;
23658;SDS011;12006;42.666;23.326;2024-03-07T11:14:07;2.73;;;2.40;;
23658;SDS011;12006;42.666;23.326;2024-03-07T11:17:39;3.77;;;2.53;;
23658;SDS011;12006;42.666;23.326;2024-03-07T11:21:05;3.00;;;2.60;;
23658;SDS011;12006;42.666;23.326;2024-03-07T11:24:40;3.63;;;2.30;;
23658;SDS011;12006;42.666;23.326;2024-03-07T11:28:04;2.70;;;2.03;;
23658;SDS011;12006;42.666;23.326;2024-03-07T11:31:48;2.63;;;2.30;;
23658;SDS011;12006;42.666;23.326;2024-03-07T11:35:31;4.60;;;3.47;;
23658;SDS011;12006;42.666;23.326;2024-03-07T11:43:04;4.37;;;2.70;;
23658;SDS011;12006;42.666;23.326;2024-03-07T11:46:30;3.10;;;2.67;;
23658;SDS011;12006;42.666;23.326;2024-03-07T11:50:06;2.50;;;2.30;;
23658;SDS011;12006;42.666;23.326;2024-03-07T11:53:30;5.27;;;3.10;;
23658;SDS011;12006;42.666;23.326;2024-03-07T11:56:56;3.57;;;3.17;;
23658;SDS011;12006;42.666;23.326;2024-03-07T12:00:20;3.73;;;2.93;;
23658;SDS011;12006;42.666;23.326;2024-03-07T12:03:50;9.70;;;6.97;;
23658;SDS011;12006;42.666;23.326;2024-03-07T12:07:14;3.70;;;2.87;;
23658;SDS011;12006;42.666;23.326;2024-03-07T12:10:40;4.00;;;3.30;;
23658;SDS011;12006;42.666;23.326;2024-03-07T12:14:06;4.10;;;3.10;;
23658;SDS011;12006;42.666;23.326;2024-03-07T12:17:37;4.70;;;2.63;;
23658;SDS011;12006;42.666;23.326;2024-03-07T12:21:01;4.07;;;3.10;;
23658;SDS011;12006;42.666;23.326;2024-03-07T12:24:28;4.60;;;3.10;;
23658;SDS011;12006;42.666;23.326;2024-03-07T12:28:26;3.40;;;2.93;;
23658;SDS011;12006;42.666;23.326;2024-03-07T12:31:43;3.80;;;2.80;;
23658;SDS011;12006;42.666;23.326;2024-03-07T12:35:14;3.87;;;2.57;;
23658;SDS011;12006;42.666;23.326;2024-03-07T12:38:38;3.60;;;2.63;;
23658;SDS011;12006;42.666;23.326;2024-03-07T12:42:20;7.20;;;4.87;;
23658;SDS011;12006;42.666;23.326;2024-03-07T12:45:49;3.30;;;2.73;;
23658;SDS011;12006;42.666;23.326;2024-03-07T12:49:18;3.90;;;3.13;;
23658;SDS011;12006;42.666;23.326;2024-03-07T12:52:45;4.57;;;3.50;;
23658;SDS011;12006;42.666;23.326;2024-03-07T12:56:11;4.73;;;3.43;;
23658;SDS011;12006;42.666;23.326;2024-03-07T12:59:38;4.90;;;4.00;;
23658;SDS011;12006;42.666;23.326;2024-03-07T13:03:02;5.60;;;4.43;;
23658;SDS011;12006;42.666;23.326;2024-03-07T13:06:26;9.77;;;7.07;;
23658;SDS011;12006;42.666;23.326;2024-03-07T13:09:51;5.60;;;4.60;;
23658;SDS011;12006;42.666;23.326;2024-03-07T13:13:14;6.70;;;4.43;;
23658;SDS011;12006;42.666;23.326;2024-03-07T13:16:39;5.27;;;4.20;;
23658;SDS011;12006;42.666;23.326;2024-03-07T13:20:03;5.00;;;4.50;;
23658;SDS011;12006;42.666;23.326;2024-03-07T13:23:28;5.43;;;4.10;;
23658;SDS011;12006;42.666;23.326;2024-03-07T13:26:53;5.23;;;4.23;;
23658;SDS011;12006;42.666;23.326;2024-03-07T13:30:19;4.40;;;3.83;;
23658;SDS011;12006;42.666;23.326;2024-03-07T13:33:43;5.90;;;3.93;;
23658;SDS011;12006;42.666;23.326;2024-03-07T13:37:07;5.47;;;4.47;;
23658;SDS011;12006;42.666;23.326;2024-03-07T13:40:33;6.80;;;4.10;;
23658;SDS011;12006;42.666;23.326;2024-03-07T13:43:57;3.90;;;2.93;;
23658;SDS011;12006;42.666;23.326;2024-03-07T13:47:21;5.07;;;2.23;;
23658;SDS011;12006;42.666;23.326;2024-03-07T13:50:46;7.50;;;5.73;;
23658;SDS011;12006;42.666;23.326;2024-03-07T13:54:18;5.37;;;4.50;;
23658;SDS011;12006;42.666;23.326;2024-03-07T13:57:47;4.20;;;3.20;;
23658;SDS011;12006;42.666;23.326;2024-03-07T14:05:38;4.70;;;2.97;;
23658;SDS011;12006;42.666;23.326;2024-03-07T14:09:35;4.00;;;3.07;;
23658;SDS011;12006;42.666;23.326;2024-03-07T14:13:23;3.97;;;2.87;;
23658;SDS011;12006;42.666;23.326;2024-03-07T14:28:11;7.07;;;5.27;;
23658;SDS011;12006;42.666;23.326;2024-03-07T14:31:47;8.33;;;5.17;;
23658;SDS011;12006;42.666;23.326;2024-03-07T14:35:24;7.67;;;6.20;;
23658;SDS011;12006;42.666;23.326;2024-03-07T14:39:09;7.40;;;6.00;;
23658;SDS011;12006;42.666;23.326;2024-03-07T14:42:41;7.87;;;6.00;;
23658;SDS011;12006;42.666;23.326;2024-03-07T14:46:11;8.13;;;5.80;;
23658;SDS011;12006;42.666;23.326;2024-03-07T14:49:36;18.87;;;11.00;;
23658;SDS011;12006;42.666;23.326;2024-03-07T14:53:02;9.93;;;6.03;;
23658;SDS011;12006;42.666;23.326;2024-03-07T14:56:28;17.97;;;10.90;;
23658;SDS011;12006;42.666;23.326;2024-03-07T14:59:52;10.80;;;8.13;;
23658;SDS011;12006;42.666;23.326;2024-03-07T15:03:18;10.90;;;7.37;;
23658;SDS011;12006;42.666;23.326;2024-03-07T15:06:42;11.80;;;7.70;;
23658;SDS011;12006;42.666;23.326;2024-03-07T15:10:08;12.03;;;7.70;;
23658;SDS011;12006;42.666;23.326;2024-03-07T15:13:45;12.10;;;8.40;;
23658;SDS011;12006;42.666;23.326;2024-03-07T15:17:09;12.43;;;7.67;;
23658;SDS011;12006;42.666;23.326;2024-03-07T15:20:34;10.13;;;7.17;;
23658;SDS011;12006;42.666;23.326;2024-03-07T15:23:58;12.43;;;9.03;;
23658;SDS011;12006;42.666;23.326;2024-03-07T15:27:24;11.07;;;8.03;;
23658;SDS011;12006;42.666;23.326;2024-03-07T15:30:49;10.97;;;7.47;;
23658;SDS011;12006;42.666;23.326;2024-03-07T15:34:14;10.90;;;7.77;;
23658;SDS011;12006;42.666;23.326;2024-03-07T15:37:45;11.53;;;7.67;;
23658;SDS011;12006;42.666;23.326;2024-03-07T15:41:09;14.70;;;9.63;;
23658;SDS011;12006;42.666;23.326;2024-03-07T15:44:33;11.93;;;8.17;;
23658;SDS011;12006;42.666;23.326;2024-03-07T15:47:58;15.73;;;8.73;;
23658;SDS011;12006;42.666;23.326;2024-03-07T15:51:22;11.93;;;8.43;;
23658;SDS011;12006;42.666;23.326;2024-03-07T15:54:46;13.27;;;8.17;;
23658;SDS011;12006;42.666;23.326;2024-03-07T15:58:11;13.27;;;8.57;;
23658;SDS011;12006;42.666;23.326;2024-03-07T16:01:35;11.23;;;7.73;;
23658;SDS011;12006;42.666;23.326;2024-03-07T16:05:00;13.77;;;8.70;;
23658;SDS011;12006;42.666;23.326;2024-03-07T16:08:24;13.53;;;7.70;;
23658;SDS011;12006;42.666;23.326;2024-03-07T16:11:49;10.07;;;6.33;;
23658;SDS011;12006;42.666;23.326;2024-03-07T16:15:13;9.80;;;6.50;;
23658;SDS011;12006;42.666;23.326;2024-03-07T16:18:38;10.60;;;6.60;;
23658;SDS011;12006;42.666;23.326;2024-03-07T16:22:02;12.13;;;7.27;;
23658;SDS011;12006;42.666;23.326;2024-03-07T16:25:29;8.57;;;6.33;;
23658;SDS011;12006;42.666;23.326;2024-03-07T16:29:00;10.37;;;7.07;;
23658;SDS011;12006;42.666;23.326;2024-03-07T16:32:24;10.27;;;7.43;;
23658;SDS011;12006;42.666;23.326;2024-03-07T16:35:53;12.07;;;8.10;;
23658;SDS011;12006;42.666;23.326;2024-03-07T16:39:21;9.80;;;7.37;;
23658;SDS011;12006;42.666;23.326;2024-03-07T16:42:47;12.10;;;8.13;;
23658;SDS011;12006;42.666;23.326;2024-03-07T16:46:11;13.27;;;7.47;;
23658;SDS011;12006;42.666;23.326;2024-03-07T16:49:39;12.23;;;8.10;;
23658;SDS011;12006;42.666;23.326;2024-03-07T16:53:06;12.13;;;9.10;;
23658;SDS011;12006;42.666;23.326;2024-03-07T16:56:35;12.90;;;8.87;;
23658;SDS011;12006;42.666;23.326;2024-03-07T17:00:04;12.67;;;9.30;;
23658;SDS011;12006;42.666;23.326;2024-03-07T17:03:29;15.83;;;9.73;;
23658;SDS011;12006;42.666;23.326;2024-03-07T17:06:53;17.27;;;9.90;;
23658;SDS011;12006;42.666;23.326;2024-03-07T17:10:17;15.73;;;8.87;;
23658;SDS011;12006;42.666;23.326;2024-03-07T17:13:40;14.43;;;9.40;;
23658;SDS011;12006;42.666;23.326;2024-03-07T17:17:08;13.90;;;9.30;;
23658;SDS011;12006;42.666;23.326;2024-03-07T17:20:35;14.00;;;10.03;;
23658;SDS011;12006;42.666;23.326;2024-03-07T17:23:59;15.33;;;9.63;;
23658;SDS011;12006;42.666;23.326;2024-03-07T17:27:23;16.27;;;10.13;;
23658;SDS011;12006;42.666;23.326;2024-03-07T17:30:47;15.50;;;11.17;;
23658;SDS011;12006;42.666;23.326;2024-03-07T17:34:11;18.03;;;11.77;;
23658;SDS011;12006;42.666;23.326;2024-03-07T17:37:36;19.80;;;12.13;;
23658;SDS011;12006;42.666;23.326;2024-03-07T17:41:01;18.30;;;11.93;;
23658;SDS011;12006;42.666;23.326;2024-03-07T17:44:25;19.83;;;11.87;;
23658;SDS011;12006;42.666;23.326;2024-03-07T17:47:54;18.97;;;11.10;;
23658;SDS011;12006;42.666;23.326;2024-03-07T17:51:18;20.43;;;12.40;;
23658;SDS011;12006;42.666;23.326;2024-03-07T17:54:42;17.00;;;11.93;;
23658;SDS011;12006;42.666;23.326;2024-03-07T17:58:08;18.73;;;11.53;;
23658;SDS011;12006;42.666;23.326;2024-03-07T18:01:32;17.30;;;10.60;;
23658;SDS011;12006;42.666;23.326;2024-03-07T18:04:56;15.20;;;9.93;;
23658;SDS011;12006;42.666;23.326;2024-03-07T18:08:20;12.63;;;9.57;;
23658;SDS011;12006;42.666;23.326;2024-03-07T18:11:53;12.13;;;8.90;;
23658;SDS011;12006;42.666;23.326;2024-03-07T18:15:24;12.60;;;8.77;;
23658;SDS011;12006;42.666;23.326;2024-03-07T18:18:48;15.50;;;8.93;;
23658;SDS011;12006;42.666;23.326;2024-03-07T18:22:12;15.00;;;9.07;;
23658;SDS011;12006;42.666;23.326;2024-03-07T18:25:36;12.10;;;8.47;;
23658;SDS011;12006;42.666;23.326;2024-03-07T18:29:00;8.03;;;6.40;;
23658;SDS011;12006;42.666;23.326;2024-03-07T18:32:35;7.73;;;5.33;;
23658;SDS011;12006;42.666;23.326;2024-03-07T18:35:59;5.17;;;3.90;;
23658;SDS011;12006;42.666;23.326;2024-03-07T18:39:28;6.40;;;4.90;;
23658;SDS011;12006;42.666;23.326;2024-03-07T18:42:51;5.80;;;3.67;;
23658;SDS011;12006;42.666;23.326;2024-03-07T18:46:15;3.87;;;2.80;;
23658;SDS011;12006;42.666;23.326;2024-03-07T18:49:43;3.07;;;2.50;;
23658;SDS011;12006;42.666;23.326;2024-03-07T18:53:09;3.47;;;2.20;;
23658;SDS011;12006;42.666;23.326;2024-03-07T18:56:34;3.00;;;2.50;;
23658;SDS011;12006;42.666;23.326;2024-03-07T18:59:58;2.77;;;1.97;;
23658;SDS011;12006;42.666;23.326;2024-03-07T19:03:22;1.80;;;1.70;;
23658;SDS011;12006;42.666;23.326;2024-03-07T19:06:46;1.83;;;1.50;;
23658;SDS011;12006;42.666;23.326;2024-03-07T19:10:10;3.20;;;1.93;;
23658;SDS011;12006;42.666;23.326;2024-03-07T19:13:37;4.20;;;2.00;;
23658;SDS011;12006;42.666;23.326;2024-03-07T19:17:01;2.67;;;1.90;;
23658;SDS011;12006;42.666;23.326;2024-03-07T19:20:25;3.67;;;2.37;;
23658;SDS011;12006;42.666;23.326;2024-03-07T19:23:49;4.30;;;2.90;;
23658;SDS011;12006;42.666;23.326;2024-03-07T19:27:15;3.07;;;2.77;;
23658;SDS011;12006;42.666;23.326;2024-03-07T19:30:39;3.87;;;2.70;;
23658;SDS011;12006;42.666;23.326;2024-03-07T19:34:04;4.87;;;3.00;;
23658;SDS011;12006;42.666;23.326;2024-03-07T19:37:30;3.93;;;2.50;;
23658;SDS011;12006;42.666;23.326;2024-03-07T19:40:54;5.17;;;3.20;;
23658;SDS011;12006;42.666;23.326;2024-03-07T19:44:18;4.20;;;3.20;;
23658;SDS011;12006;42.666;23.326;2024-03-07T19:47:43;5.20;;;3.17;;
23658;SDS011;12006;42.666;23.326;2024-03-07T19:51:07;4.13;;;2.93;;
23658;SDS011;12006;42.666;23.326;2024-03-07T19:54:38;4.20;;;2.83;;
23658;SDS011;12006;42.666;23.326;2024-03-07T19:58:02;3.73;;;2.27;;
23658;SDS011;12006;42.666;23.326;2024-03-07T20:01:26;3.43;;;2.70;;
23658;SDS011;12006;42.666;23.326;2024-03-07T20:04:50;3.87;;;2.87;;
23658;SDS011;12006;42.666;23.326;2024-03-07T20:08:14;5.40;;;3.00;;
23658;SDS011;12006;42.666;23.326;2024-03-07T20:11:42;4.03;;;2.87;;
23658;SDS011;12006;42.666;23.326;2024-03-07T20:15:06;5.33;;;3.17;;
23658;SDS011;12006;42.666;23.326;2024-03-07T20:18:32;2.87;;;2.50;;
23658;SDS011;12006;42.666;23.326;2024-03-07T20:21:57;6.10;;;3.90;;
23658;SDS011;12006;42.666;23.326;2024-03-07T20:25:21;4.33;;;3.80;;
23658;SDS011;12006;42.666;23.326;2024-03-07T20:28:45;4.43;;;3.07;;
23658;SDS011;12006;42.666;23.326;2024-03-07T20:32:09;4.83;;;3.30;;
23658;SDS011;12006;42.666;23.326;2024-03-07T20:35:33;5.53;;;3.93;;
23658;SDS011;12006;42.666;23.326;2024-03-07T20:38:59;5.47;;;4.47;;
23658;SDS011;12006;42.666;23.326;2024-03-07T20:42:24;6.80;;;4.20;;